1884 NOT_NAMED (1884021S10063)


IBTrACS version v04r00. Visit IBTrACS website for data access.
Please direct all questions to the IBTrACS Q and A forum

Storm track - Intensity - Wind Radii - Intensity Data - Source Data - All data

Summary Information

Storm ID 1884021S10063
Start Jan 21 06Z
End Feb 2 06Z
ATCF IDs
Track status Best track data.

Storm track plot

Map of storm track

Intensity plots

No Intensity information for this storm


Radial wind information

No radial wind information for this storm


Position and Intensity Table

BASIN ISO_TIME_________ NATURE LAT LON
degrees north degrees east
SI 1884-01-21 06:00:00 NR -9.65 63.45
SI 09:00:00 NR -9.81 63.28
SI 12:00:00 NR -9.97 63.11
SI 15:00:00 NR -10.13 62.94
SI 18:00:00 NR -10.29 62.76
SI 21:00:00 NR -10.45 62.56
SI 1884-01-22 00:00:00 NR -10.62 62.36
SI 03:00:00 NR -10.78 62.16
SI 06:00:00 NR -10.95 61.95
SI 09:00:00 NR -11.12 61.75
SI 12:00:00 NR -11.29 61.55
SI 15:00:00 NR -11.47 61.35
SI 18:00:00 NR -11.64 61.15
SI 21:00:00 NR -11.83 60.93
SI 1884-01-23 00:00:00 NR -12.01 60.72
SI 03:00:00 NR -12.18 60.53
SI 06:00:00 NR -12.35 60.35
SI 09:00:00 NR -12.49 60.22
SI 12:00:00 NR -12.62 60.11
SI 15:00:00 NR -12.74 60.01
SI 18:00:00 NR -12.87 59.92
SI 21:00:00 NR -13.01 59.82
SI 1884-01-24 00:00:00 NR -13.16 59.72
SI 03:00:00 NR -13.31 59.63
SI 06:00:00 NR -13.45 59.55
SI 09:00:00 NR -13.59 59.46
SI 12:00:00 NR -13.73 59.39
SI 15:00:00 NR -13.86 59.32
SI 18:00:00 NR -14.00 59.27
SI 21:00:00 NR -14.14 59.22
SI 1884-01-25 00:00:00 NR -14.29 59.19
SI 03:00:00 NR -14.42 59.17
SI 06:00:00 NR -14.55 59.15
SI 09:00:00 NR -14.66 59.13
SI 12:00:00 NR -14.77 59.12
SI 15:00:00 NR -14.87 59.12
SI 18:00:00 NR -14.97 59.13
SI 21:00:00 NR -15.06 59.14
SI 1884-01-26 00:00:00 NR -15.15 59.16
SI 03:00:00 NR -15.24 59.19
SI 06:00:00 NR -15.35 59.25
SI 09:00:00 NR -15.47 59.32
SI 12:00:00 NR -15.60 59.41
SI 15:00:00 NR -15.73 59.52
SI 18:00:00 NR -15.86 59.64
SI 21:00:00 NR -15.99 59.76
SI 1884-01-27 00:00:00 NR -16.12 59.89
SI 03:00:00 NR -16.26 60.04
SI 06:00:00 NR -16.40 60.20
SI 09:00:00 NR -16.57 60.39
SI 12:00:00 NR -16.74 60.60
SI 15:00:00 NR -16.91 60.82
SI 18:00:00 NR -17.06 61.03
SI 21:00:00 NR -17.19 61.21
SI 1884-01-28 00:00:00 NR -17.30 61.38
SI 03:00:00 NR -17.42 61.55
SI 06:00:00 NR -17.55 61.75
SI 09:00:00 NR -17.72 62.00
SI 12:00:00 NR -17.90 62.27
SI 15:00:00 NR -18.09 62.55
SI 18:00:00 NR -18.27 62.82
SI 21:00:00 NR -18.43 63.07
SI 1884-01-29 00:00:00 NR -18.58 63.31
SI 03:00:00 NR -18.72 63.54
SI 06:00:00 NR -18.85 63.75
SI 09:00:00 NR -18.97 63.94
SI 12:00:00 NR -19.08 64.11
SI 15:00:00 NR -19.18 64.27
SI 18:00:00 NR -19.28 64.43
SI 21:00:00 NR -19.38 64.58
SI 1884-01-30 00:00:00 NR -19.35 64.51
SI 03:00:00 NR -19.28 64.35
SI 06:00:00 NR -19.14 64.06
SI 09:00:00 NR -18.89 63.56
SI 12:00:00 NR -18.98 63.72
SI 15:00:00 NR -19.08 63.90
SI 18:00:00 NR -19.18 64.09
SI 21:00:00 NR -19.28 64.29
SI 1884-01-31 00:00:00 NR -19.38 64.49
SI 03:00:00 NR -19.49 64.69
SI 06:00:00 NR -19.60 64.90
SI 09:00:00 NR -19.73 65.12
SI 12:00:00 NR -19.86 65.35
SI 15:00:00 NR -19.99 65.58
SI 18:00:00 NR -20.12 65.80
SI 21:00:00 NR -20.25 66.02
SI 1884-02-01 00:00:00 NR -20.38 66.23
SI 03:00:00 NR -20.49 66.43
SI 06:00:00 NR -20.60 66.60
SI 09:00:00 NR -20.69 66.75
SI 12:00:00 NR -20.77 66.88
SI 15:00:00 NR -20.84 67.00
SI 18:00:00 NR -20.90 67.10
SI 21:00:00 NR -20.96 67.18
SI 1884-02-02 00:00:00 NR -21.01 67.26
SI 03:00:00 NR -21.06 67.33
SI 06:00:00 NR -21.10 67.40

Source Information

Agency Information
USA
TOKYO
CMA
HKO
NEWDELHI
REUNION WMO-Best-Tracks.txt:Line=1350:xxxx884199
BOM
NADI
WELLINGTON
DS824
TD9636 cons_worldwide_trop_cyclone_18710101-19891231-005:Line=1794
TD9635
NEUMANN
MLC

All available IBTrACS Data

SEASON BASIN SUBBASIN ISO_TIME_________ NATURE LAT LON WMO AGENCY DIST2LAND LANDFALL IFLAG USA SSHS REUNION LAT REUNION LON REUNION TYPE REUNION TNUM TD9636 LAT TD9636 LON TD9636 STAGE STORM SPEED STORM DIR
Year degrees north degrees east km km 1 degrees north degrees east 1 degrees north degrees east kts degrees
1884 SI MM 1884-01-21 06:00:00 NR -9.65 63.45 reunion 1330 1300 _____O____O___ -1 -9.30 63.90 99 9.90 -10.00 63.00 7 5 226
1884 SI MM 09:00:00 NR -9.81 63.28 1300 1270 _____P____P___ -1 -9.36 63.84 99 -10.26 62.73 7 5 226
1884 SI MM 12:00:00 NR -9.97 63.11 1270 1250 _____P____P___ -1 -9.42 63.78 99 -10.51 62.45 7 5 227
1884 SI MM 15:00:00 NR -10.13 62.94 1250 1225 _____P____P___ -1 -9.50 63.70 99 -10.76 62.18 7 5 228
1884 SI MM 18:00:00 NR -10.29 62.76 1225 1206 _____P____O___ -1 -9.58 63.61 99 -11.00 61.90 7 5 229
1884 SI MM 21:00:00 NR -10.45 62.56 1195 1176 _____P____P___ -1 -9.68 63.50 99 -11.23 61.62 7 5 230
1884 SI MM 1884-01-22 00:00:00 NR -10.62 62.36 1176 1147 _____P____P___ -1 -9.79 63.37 99 -11.44 61.36 7 5 231
1884 SI MM 03:00:00 NR -10.78 62.16 1147 1127 _____P____P___ -1 -9.93 63.20 99 -11.63 61.11 7 5 230
1884 SI MM 06:00:00 NR -10.95 61.95 reunion 1127 1098 _____O____O___ -1 -10.10 63.00 99 9.90 -11.80 60.90 7 5 230
1884 SI MM 09:00:00 NR -11.12 61.75 1098 1069 _____P____P___ -1 -10.29 62.76 99 -11.95 60.74 7 5 229
1884 SI MM 12:00:00 NR -11.29 61.55 1069 1040 _____P____P___ -1 -10.51 62.49 99 -12.07 60.61 7 5 228
1884 SI MM 15:00:00 NR -11.47 61.35 1040 1022 _____P____P___ -1 -10.74 62.20 99 -12.19 60.50 7 5 228
1884 SI MM 18:00:00 NR -11.64 61.15 1022 989 _____P____O___ -1 -10.99 61.90 99 -12.30 60.40 7 5 229
1884 SI MM 21:00:00 NR -11.83 60.93 989 961 _____P____P___ -1 -11.23 61.60 99 -12.43 60.27 7 6 229
1884 SI MM 1884-01-23 00:00:00 NR -12.01 60.72 961 933 _____P____P___ -1 -11.47 61.31 99 -12.55 60.13 7 5 228
1884 SI MM 03:00:00 NR -12.18 60.53 933 919 _____P____P___ -1 -11.69 61.04 99 -12.68 60.01 7 5 227
1884 SI MM 06:00:00 NR -12.35 60.35 reunion 919 891 _____O____O___ -1 -11.90 60.80 99 9.90 -12.80 59.90 7 4 225
1884 SI MM 09:00:00 NR -12.49 60.22 891 877 _____P____P___ -1 -12.06 60.62 99 -12.92 59.81 7 4 221
1884 SI MM 12:00:00 NR -12.62 60.11 877 863 _____P____P___ -1 -12.20 60.48 99 -13.03 59.74 7 3 218
1884 SI MM 15:00:00 NR -12.74 60.01 863 839 _____P____P___ -1 -12.33 60.35 99 -13.16 59.67 7 3 216
1884 SI MM 18:00:00 NR -12.87 59.92 839 825 _____P____O___ -1 -12.44 60.24 99 -13.30 59.60 7 3 214
1884 SI MM 21:00:00 NR -13.01 59.82 825 801 _____P____P___ -1 -12.56 60.15 99 -13.47 59.50 7 3 214
1884 SI MM 1884-01-24 00:00:00 NR -13.16 59.72 801 787 _____P____P___ -1 -12.67 60.06 99 -13.65 59.39 7 3 212
1884 SI MM 03:00:00 NR -13.31 59.63 787 776 _____P____P___ -1 -12.78 59.98 99 -13.83 59.28 7 3 210
1884 SI MM 06:00:00 NR -13.45 59.55 reunion 776 752 _____O____O___ -1 -12.90 59.90 99 9.90 -14.00 59.20 7 3 210
1884 SI MM 09:00:00 NR -13.59 59.46 752 738 _____P____P___ -1 -13.04 59.78 99 -14.14 59.15 7 3 210
1884 SI MM 12:00:00 NR -13.73 59.39 738 714 _____P____P___ -1 -13.19 59.66 99 -14.26 59.11 7 3 207
1884 SI MM 15:00:00 NR -13.86 59.32 714 703 _____P____P___ -1 -13.35 59.55 99 -14.38 59.10 7 3 203
1884 SI MM 18:00:00 NR -14.00 59.27 703 690 _____P____O___ -1 -13.50 59.44 99 -14.50 59.10 7 3 200
1884 SI MM 21:00:00 NR -14.14 59.22 690 668 _____P____P___ -1 -13.65 59.34 99 -14.63 59.11 7 3 195
1884 SI MM 1884-01-25 00:00:00 NR -14.29 59.19 668 657 _____P____P___ -1 -13.81 59.25 99 -14.77 59.13 7 3 192
1884 SI MM 03:00:00 NR -14.42 59.17 657 646 _____P____P___ -1 -13.96 59.17 99 -14.89 59.17 7 3 190
1884 SI MM 06:00:00 NR -14.55 59.15 reunion 646 622 _____O____O___ -1 -14.10 59.10 99 9.90 -15.00 59.20 7 2 187
1884 SI MM 09:00:00 NR -14.66 59.13 622 611 _____P____P___ -1 -14.24 59.05 99 -15.09 59.22 7 2 0
1884 SI MM 12:00:00 NR -14.77 59.12 611 600 _____P____P___ -1 -14.38 59.00 99 -15.16 59.24 7 2 0
1884 SI MM 15:00:00 NR -14.87 59.12 600 589 _____P____P___ -1 -14.51 58.98 99 -15.23 59.27 7 2 0
1884 SI MM 18:00:00 NR -14.97 59.13 589 578 _____P____O___ -1 -14.64 58.96 99 -15.30 59.30 7 2 174
1884 SI MM 21:00:00 NR -15.06 59.14 578 578 _____P____P___ -1 -14.76 58.95 99 -15.36 59.32 7 2 177
1884 SI MM 1884-01-26 00:00:00 NR -15.15 59.16 581 570 _____P____P___ -1 -14.88 58.96 99 -15.42 59.36 7 2 162
1884 SI MM 03:00:00 NR -15.24 59.19 570 560 _____P____P___ -1 -14.99 58.98 99 -15.50 59.41 7 2 155
1884 SI MM 06:00:00 NR -15.35 59.25 reunion 563 541 _____O____O___ -1 -15.10 59.00 99 9.90 -15.60 59.50 7 3 151
1884 SI MM 09:00:00 NR -15.47 59.32 541 534 _____P____P___ -1 -15.19 59.01 99 -15.75 59.63 7 3 147
1884 SI MM 12:00:00 NR -15.60 59.41 534 527 _____P____P___ -1 -15.27 59.02 99 -15.92 59.80 7 3 143
1884 SI MM 15:00:00 NR -15.73 59.52 527 511 _____P____P___ -1 -15.35 59.04 99 -16.11 60.00 7 3 140
1884 SI MM 18:00:00 NR -15.86 59.64 511 505 _____P____O___ -1 -15.43 59.08 99 -16.30 60.20 7 3 139
1884 SI MM 21:00:00 NR -15.99 59.76 509 499 _____P____P___ -1 -15.51 59.13 99 -16.47 60.38 7 4 137
1884 SI MM 1884-01-27 00:00:00 NR -16.12 59.89 504 494 _____P____P___ -1 -15.59 59.20 99 -16.65 60.58 7 4 135
1884 SI MM 03:00:00 NR -16.26 60.04 489 485 _____P____P___ -1 -15.69 59.29 99 -16.82 60.78 7 4 133
1884 SI MM 06:00:00 NR -16.40 60.20 reunion 490 484 _____O____O___ -1 -15.80 59.40 99 9.90 -17.00 61.00 7 5 132
1884 SI MM 09:00:00 NR -16.57 60.39 484 481 _____P____P___ -1 -15.94 59.53 99 -17.19 61.25 7 5 131
1884 SI MM 12:00:00 NR -16.74 60.60 488 477 _____P____P___ -1 -16.09 59.69 99 -17.38 61.51 7 5 130
1884 SI MM 15:00:00 NR -16.91 60.82 484 483 _____P____P___ -1 -16.26 59.87 99 -17.55 61.77 7 5 129
1884 SI MM 18:00:00 NR -17.06 61.03 483 483 _____P____O___ -1 -16.43 60.06 99 -17.70 62.00 7 5 127
1884 SI MM 21:00:00 NR -17.19 61.21 491 491 _____P____P___ -1 -16.60 60.26 99 -17.78 62.15 7 4 126
1884 SI MM 1884-01-28 00:00:00 NR -17.30 61.38 499 499 _____P____P___ -1 -16.77 60.47 99 -17.83 62.28 7 4 125
1884 SI MM 03:00:00 NR -17.42 61.55 509 503 _____P____P___ -1 -16.94 60.69 99 -17.90 62.42 7 4 125
1884 SI MM 06:00:00 NR -17.55 61.75 reunion 520 514 _____O____O___ -1 -17.10 60.90 99 9.90 -18.00 62.60 7 5 125
1884 SI MM 09:00:00 NR -17.72 62.00 526 526 _____P____P___ -1 -17.24 61.11 99 -18.19 62.88 7 6 126
1884 SI MM 12:00:00 NR -17.90 62.27 542 537 _____P____P___ -1 -17.38 61.32 99 -18.42 63.21 7 6 125
1884 SI MM 15:00:00 NR -18.09 62.55 551 551 _____P____P___ -1 -17.52 61.53 99 -18.67 63.56 7 6 125
1884 SI MM 18:00:00 NR -18.27 62.82 570 570 _____P____O___ -1 -17.65 61.74 99 -18.90 63.90 7 6 124
1884 SI MM 21:00:00 NR -18.43 63.07 595 591 _____P____P___ -1 -17.77 61.95 99 -19.10 64.20 7 6 124
1884 SI MM 1884-01-29 00:00:00 NR -18.58 63.31 607 607 _____P____P___ -1 -17.88 62.15 99 -19.28 64.48 7 5 123
1884 SI MM 03:00:00 NR -18.72 63.54 623 623 _____P____P___ -1 -17.99 62.33 99 -19.45 64.75 7 5 123
1884 SI MM 06:00:00 NR -18.85 63.75 reunion 650 637 _____O____O___ -1 -18.10 62.50 99 9.90 -19.60 65.00 7 5 124
1884 SI MM 09:00:00 NR -18.97 63.94 655 655 _____P____P___ -1 -18.20 62.63 99 -19.74 65.24 7 4 124
1884 SI MM 12:00:00 NR -19.08 64.11 672 672 _____P____P___ -1 -18.29 62.75 99 -19.87 65.47 7 4 124
1884 SI MM 15:00:00 NR -19.18 64.27 691 691 _____P____P___ -1 -18.38 62.86 99 -19.99 65.69 7 4 124
1884 SI MM 18:00:00 NR -19.28 64.43 699 699 _____P____O___ -1 -18.46 62.96 99 -20.10 65.90 7 3 123
1884 SI MM 21:00:00 NR -19.38 64.58 718 707 _____P____P___ -1 -18.55 63.06 99 -20.20 66.10 7 1 129
1884 SI MM 1884-01-30 00:00:00 NR -19.35 64.51 709 699 _____P____P___ -1 -18.63 63.16 99 -20.31 66.30 7 2 295
1884 SI MM 03:00:00 NR -19.28 64.35 689 670 _____P____P___ -1 -18.71 63.27 99 -20.40 66.50 7 5 296
1884 SI MM 06:00:00 NR -19.14 64.06 reunion 672 627 _____O____O___ -1 -18.80 63.40 99 9.90 -20.50 66.70 7 8 297
1884 SI MM 09:00:00 NR -18.89 63.56 627 617 _____P________ -1 -18.89 63.56 99 7 4 296
1884 SI MM 12:00:00 NR -18.98 63.72 634 634 _____P________ -1 -18.98 63.72 99 7 4 120
1884 SI MM 15:00:00 NR -19.08 63.90 652 652 _____P________ -1 -19.08 63.90 99 7 4 119
1884 SI MM 18:00:00 NR -19.18 64.09 670 670 _____P________ -1 -19.18 64.09 99 4 119
1884 SI MM 21:00:00 NR -19.28 64.29 689 689 _____P________ -1 -19.28 64.29 99 4 119
1884 SI MM 1884-01-31 00:00:00 NR -19.38 64.49 707 707 _____P________ -1 -19.38 64.49 99 4 119
1884 SI MM 03:00:00 NR -19.49 64.69 726 726 _____P________ -1 -19.49 64.69 99 4 119
1884 SI MM 06:00:00 NR -19.60 64.90 reunion 746 746 _____O________ -1 -19.60 64.90 99 9.90 5 120
1884 SI MM 09:00:00 NR -19.73 65.12 765 765 _____P________ -1 -19.73 65.12 99 5 121
1884 SI MM 12:00:00 NR -19.86 65.35 784 784 _____P________ -1 -19.86 65.35 99 5 122
1884 SI MM 15:00:00 NR -19.99 65.58 814 814 _____P________ -1 -19.99 65.58 99 5 122
1884 SI MM 18:00:00 NR -20.12 65.80 834 834 _____P________ -1 -20.12 65.80 99 5 122
1884 SI MM 21:00:00 NR -20.25 66.02 854 854 _____P________ -1 -20.25 66.02 99 5 122
1884 SI MM 1884-02-01 00:00:00 NR -20.38 66.23 875 875 _____P________ -1 -20.38 66.23 99 4 123
1884 SI MM 03:00:00 NR -20.49 66.43 896 896 _____P________ -1 -20.49 66.43 99 4 123
1884 SI MM 06:00:00 NR -20.60 66.60 reunion 917 917 _____O________ -1 -20.60 66.60 99 9.90 4 123
1884 SI MM 09:00:00 NR -20.69 66.75 938 938 _____P________ -1 -20.69 66.75 99 3 123
1884 SI MM 12:00:00 NR -20.77 66.88 948 948 _____P________ -1 -20.77 66.88 99 3 124
1884 SI MM 15:00:00 NR -20.84 67.00 959 959 _____P________ -1 -20.84 67.00 99 2 124
1884 SI MM 18:00:00 NR -20.90 67.10 970 970 _____P________ -1 -20.90 67.10 99 2 124
1884 SI MM 21:00:00 NR -20.96 67.18 980 980 _____P________ -1 -20.96 67.18 99 2 124
1884 SI MM 1884-02-02 00:00:00 NR -21.01 67.26 991 991 _____P________ -1 -21.01 67.26 99 2 125
1884 SI MM 03:00:00 NR -21.06 67.33 991 991 _____P________ -1 -21.06 67.33 99 2 125
1884 SI MM 06:00:00 NR -21.10 67.40 reunion 1002 _____O________ -1 -21.10 67.40 99 9.90 2 124